Time;durP1;ratioP1;P1;durP2;ratioP2;P2;SDS_P1;SDS_P2;PMS_P1;PMS_P2;Temp;Humidity;BMP_temperature;BMP_pressure;BME280_temperature;BME280_humidity;BME280_pressure;Samples;Min_cycle;Max_cycle;Signal;HPM_P1;HPM_P2
2024/01/18 00:00:53;;;;;;;50.63;19.48;;;;;;;3.08;72.03;97759.25;7736607;32;40203;-84
2024/01/18 00:05:10;;;;;;;44.85;18.87;;;;;;;3.18;72.05;97756.53;7736537;32;39751;-83
2024/01/18 00:09:26;;;;;;;38.25;18.33;;;;;;;3.33;71.51;97744.91;7722712;32;37819;-83
2024/01/18 00:13:47;;;;;;;40.03;19.60;;;;;;;3.35;71.54;97737.37;7736560;32;37217;-83
2024/01/18 00:18:05;;;;;;;41.95;19.20;;;;;;;3.32;71.82;97733.31;7736210;32;39368;-84
2024/01/18 00:22:21;;;;;;;40.17;18.83;;;;;;;3.41;71.60;97721.97;7736134;32;40701;-85
2024/01/18 00:26:37;;;;;;;41.53;18.12;;;;;;;3.39;72.24;97714.97;7735925;32;38498;-84
2024/01/18 00:30:54;;;;;;;39.90;18.35;;;;;;;3.50;71.98;97701.47;7736751;32;37174;-84
2024/01/18 00:35:10;;;;;;;41.30;19.17;;;;;;;3.55;71.77;97704.13;7735820;32;39457;-85
2024/01/18 00:39:27;;;;;;;44.95;18.40;;;;;;;3.44;72.19;97705.28;7735623;32;39900;-85
2024/01/18 00:43:43;;;;;;;35.92;16.77;;;;;;;3.41;72.60;97708.50;7735612;32;37660;-84
2024/01/18 00:47:59;;;;;;;43.08;18.85;;;;;;;3.46;72.51;97692.31;7735510;32;37866;-85
2024/01/18 00:52:16;;;;;;;42.72;19.37;;;;;;;3.64;72.36;97689.00;7735349;32;39303;-85
2024/01/18 00:56:32;;;;;;;39.42;18.25;;;;;;;3.69;72.70;97694.38;7767049;32;40003;-85
2024/01/18 01:00:48;;;;;;;36.97;17.50;;;;;;;3.87;72.57;97684.81;7792676;32;38733;-85
2024/01/18 01:05:05;;;;;;;40.67;18.40;;;;;;;3.91;72.61;97674.28;7793494;32;37473;-84
2024/01/18 01:09:22;;;;;;;45.78;19.70;;;;;;;3.95;72.49;97659.19;7793354;32;40136;-84
2024/01/18 01:13:38;;;;;;;40.63;19.02;;;;;;;3.95;72.71;97648.41;7754805;32;39918;-84
2024/01/18 01:17:54;;;;;;;39.95;17.40;;;;;;;4.04;72.60;97638.59;7739105;32;38024;-84
2024/01/18 01:22:10;;;;;;;42.88;19.35;;;;;;;4.23;72.12;97636.03;7739138;32;37256;-84
2024/01/18 01:26:27;;;;;;;44.92;18.62;;;;;;;4.26;72.25;97645.44;7739077;32;39024;-84
2024/01/18 01:30:43;;;;;;;35.45;17.67;;;;;;;4.44;71.63;97644.72;7738986;32;40809;-84
2024/01/18 01:35:00;;;;;;;36.67;18.20;;;;;;;4.38;71.67;97621.59;7738976;32;38651;-84
2024/01/18 01:39:16;;;;;;;39.22;19.08;;;;;;;4.27;72.28;97625.47;7738932;32;38080;-85
2024/01/18 01:43:32;;;;;;;37.08;18.52;;;;;;;4.35;72.02;97603.28;7738755;32;39321;-84
2024/01/18 01:47:50;;;;;;;36.67;16.77;;;;;;;4.38;71.99;97600.03;7738822;32;39891;-84
2024/01/18 01:52:07;;;;;;;40.08;17.92;;;;;;;4.49;71.70;97595.31;7738649;32;38727;-84
2024/01/18 01:56:23;;;;;;;39.00;19.52;;;;;;;4.45;71.80;97578.91;7738735;32;37947;-84
2024/01/18 02:00:40;;;;;;;40.78;18.77;;;;;;;4.23;72.56;97575.88;7757542;32;40137;-84
2024/01/18 02:04:56;;;;;;;39.47;19.30;;;;;;;4.20;72.76;97579.16;7765560;32;40002;-85
2024/01/18 02:09:13;;;;;;;47.58;20.40;;;;;;;4.46;72.42;97558.91;7751037;32;38607;-84
2024/01/18 02:13:30;;;;;;;40.53;18.20;;;;;;;4.49;72.72;97569.13;7765472;32;37341;-84
2024/01/18 02:17:46;;;;;;;40.58;18.45;;;;;;;4.60;72.64;97558.22;7765590;32;40091;-84
2024/01/18 02:22:06;;;;;;;48.10;19.15;;;;;;;4.78;72.00;97554.78;7765386;32;39984;-84
2024/01/18 02:26:22;;;;;;;50.22;19.95;;;;;;;5.04;70.77;97538.25;7765223;32;37997;-84
2024/01/18 02:30:39;;;;;;;40.80;19.80;;;;;;;5.01;70.66;97536.12;7765190;32;38266;-84
2024/01/18 02:34:55;;;;;;;39.90;18.42;;;;;;;4.84;71.52;97532.00;7765252;32;39405;-85
2024/01/18 02:39:12;;;;;;;42.58;17.98;;;;;;;4.72;71.62;97520.84;7765309;32;39662;-85
2024/01/18 02:43:29;;;;;;;40.55;19.37;;;;;;;4.96;71.23;97520.81;7764997;32;38795;-85
2024/01/18 02:47:45;;;;;;;39.30;18.17;;;;;;;5.01;71.42;97519.94;7765234;32;37339;-85
2024/01/18 02:52:01;;;;;;;39.97;17.40;;;;;;;4.75;72.71;97533.75;7747082;32;39924;-85
2024/01/18 02:56:18;;;;;;;42.00;19.77;;;;;;;4.73;72.43;97538.66;7744125;32;40718;-83
2024/01/18 03:00:34;;;;;;;38.38;18.60;;;;;;;4.60;72.60;97548.22;7764791;32;38625;-85
2024/01/18 03:04:51;;;;;;;34.63;17.85;;;;;;;4.83;71.97;97516.94;7764798;32;38042;-84
2024/01/18 03:09:07;;;;;;;42.85;18.95;;;;;;;4.82;71.96;97499.13;7764723;32;39288;-84
2024/01/18 03:13:23;;;;;;;42.67;18.85;;;;;;;4.47;72.84;97522.75;7763354;32;39722;-84
2024/01/18 03:17:39;;;;;;;34.58;17.92;;;;;;;5.21;71.03;97511.56;7763625;32;37793;-84
2024/01/18 03:21:56;;;;;;;38.88;17.92;;;;;;;5.23;70.59;97506.66;7750794;32;37212;-84
2024/01/18 03:26:12;;;;;;;39.72;19.52;;;;;;;5.00;71.45;97515.63;7764500;32;40068;-85
2024/01/18 03:30:29;;;;;;;40.28;18.12;;;;;;;5.28;70.76;97519.28;7764300;32;40780;-84
2024/01/18 03:34:45;;;;;;;39.08;18.65;;;;;;;5.30;70.54;97516.31;7764263;32;37945;-84
2024/01/18 03:39:01;;;;;;;36.70;19.10;;;;;;;4.84;72.51;97488.03;7763916;32;37821;-84
2024/01/18 03:43:19;;;;;;;43.33;18.95;;;;;;;4.64;73.98;97553.84;7750545;32;38486;-83
2024/01/18 03:47:35;;;;;;;34.28;19.55;;;;;;;4.92;72.77;97500.87;7738115;32;40779;-83
2024/01/18 03:51:51;;;;;;;41.20;19.42;;;;;;;5.13;72.09;97517.59;7736709;32;37841;-83
2024/01/18 03:56:09;;;;;;;38.35;18.58;;;;;;;4.68;74.26;97527.91;7736824;32;37417;-84
2024/01/18 04:00:25;;;;;;;41.65;18.85;;;;;;;5.11;72.77;97516.31;7736573;32;39117;-84
2024/01/18 04:04:42;;;;;;;37.95;17.77;;;;;;;4.95;73.13;97511.09;7736599;32;39931;-84
2024/01/18 04:08:58;;;;;;;38.60;18.80;;;;;;;5.19;72.56;97494.84;7736466;32;37887;-85
2024/01/18 04:13:14;;;;;;;39.70;19.10;;;;;;;4.97;72.85;97491.91;7755780;32;37300;-85
2024/01/18 04:17:34;;;;;;;41.80;17.70;;;;;;;5.08;72.60;97477.16;7763289;32;39418;-82
2024/01/18 04:21:51;;;;;;;40.70;20.10;;;;;;;4.93;72.82;97491.66;7763115;32;40812;-85
2024/01/18 04:26:07;;;;;;;40.25;19.73;;;;;;;4.88;72.15;97479.06;7763175;32;38118;-85
2024/01/18 04:30:23;;;;;;;41.83;19.87;;;;;;;4.96;71.12;97472.19;7764667;32;36952;-85
2024/01/18 04:34:40;;;;;;;36.97;19.17;;;;;;;5.31;70.84;97467.34;7766700;32;39144;-83
2024/01/18 04:38:56;;;;;;;40.25;19.75;;;;;;;5.27;72.02;97475.25;7742815;32;40005;-85
2024/01/18 04:43:13;;;;;;;38.38;19.45;;;;;;;5.21;72.91;97464.84;7739619;32;37929;-84
2024/01/18 04:47:29;;;;;;;31.10;17.48;;;;;;;5.46;71.70;97479.84;7739657;32;36969;-84
2024/01/18 04:51:46;;;;;;;44.20;21.52;;;;;;;5.82;70.21;97452.19;7739613;32;39557;-85
2024/01/18 04:56:03;;;;;;;46.40;20.20;;;;;;;4.99;70.82;97465.41;7739572;32;40432;-85
2024/01/18 05:00:19;;;;;;;43.13;19.65;;;;;;;4.99;71.70;97468.13;7739219;32;38615;-85
2024/01/18 05:04:36;;;;;;;65.53;21.98;;;;;;;4.94;70.87;97454.69;7739537;32;38012;-85
2024/01/18 05:08:52;;;;;;;42.20;20.23;;;;;;;4.96;70.46;97463.31;7739424;32;39457;-85
2024/01/18 05:13:08;;;;;;;42.03;20.58;;;;;;;4.98;70.28;97464.59;7760381;32;40783;-85
2024/01/18 05:17:34;;;;;;;44.63;20.95;;;;;;;5.10;70.04;97461.47;7766011;32;38021;-85
2024/01/18 05:21:51;;;;;;;70.20;22.08;;;;;;;5.01;69.38;97458.62;7766229;32;38198;-84
2024/01/18 05:26:09;;;;;;;45.60;20.95;;;;;;;4.64;70.13;97467.50;7766122;32;39199;-84
2024/01/18 05:30:25;;;;;;;42.47;19.70;;;;;;;4.44;73.11;97463.97;7759365;32;40669;-84
2024/01/18 05:34:41;;;;;;;42.58;18.60;;;;;;;4.82;71.34;97453.22;7724991;32;37709;-84
2024/01/18 05:38:58;;;;;;;44.80;20.10;;;;;;;5.17;70.77;97461.88;7738929;32;38009;-85
2024/01/18 05:43:14;;;;;;;56.03;20.88;;;;;;;5.00;70.92;97458.91;7758055;32;39301;-84
2024/01/18 05:47:30;;;;;;;59.03;21.80;;;;;;;4.46;71.60;97469.06;7765740;32;40814;-84
2024/01/18 05:51:47;;;;;;;40.30;20.12;;;;;;;4.55;70.88;97471.94;7751755;32;37809;-84
2024/01/18 05:56:04;;;;;;;53.35;20.62;;;;;;;4.92;70.58;97470.37;7765763;32;37017;-84
2024/01/18 06:00:20;;;;;;;46.45;20.00;;;;;;;4.57;71.07;97478.66;7765528;32;40056;-85
2024/01/18 06:04:37;;;;;;;48.85;20.00;;;;;;;5.15;70.14;97466.78;7765550;32;39934;-85
2024/01/18 06:08:53;;;;;;;44.40;21.08;;;;;;;5.12;70.47;97472.78;7765493;32;38496;-85
2024/01/18 06:13:09;;;;;;;209.90;27.58;;;;;;;5.07;70.33;97470.13;7745591;32;37071;-84
2024/01/18 06:17:26;;;;;;;71.65;22.95;;;;;;;4.26;72.25;97473.62;7738488;32;39481;-84
2024/01/18 06:21:42;;;;;;;70.85;22.50;;;;;;;4.79;70.64;97486.19;7742216;32;40091;-85
2024/01/18 06:25:58;;;;;;;47.53;22.55;;;;;;;4.64;71.01;97484.50;7765286;32;38074;-84
2024/01/18 06:30:17;;;;;;;41.90;20.33;;;;;;;4.95;69.95;97484.09;7765438;32;37991;-84
2024/01/18 06:34:33;;;;;;;48.15;20.30;;;;;;;5.07;69.97;97486.34;7765324;32;39369;-83
2024/01/18 06:38:49;;;;;;;43.67;20.62;;;;;;;5.13;69.37;97490.59;7765253;32;39898;-84
2024/01/18 06:43:06;;;;;;;114.15;21.65;;;;;;;5.11;69.42;97498.19;7757166;32;37872;-84
2024/01/18 06:47:22;;;;;;;39.10;20.55;;;;;;;5.01;69.51;97506.44;7754671;32;37584;-84
2024/01/18 06:51:39;;;;;;;43.28;19.92;;;;;;;5.38;68.49;97507.50;7764922;32;39273;-84
2024/01/18 06:55:56;;;;;;;44.30;21.20;;;;;;;5.39;68.70;97509.13;7764004;32;40010;-83
2024/01/18 07:00:13;;;;;;;41.88;21.83;;;;;;;5.27;69.01;97518.47;7764789;32;38640;-85
2024/01/18 07:04:29;;;;;;;36.83;19.70;;;;;;;5.48;68.44;97528.97;7764868;32;37101;-85
2024/01/18 07:08:45;;;;;;;38.10;20.10;;;;;;;5.71;67.68;97521.06;7764866;32;39081;-85
2024/01/18 07:13:02;;;;;;;34.60;18.02;;;;;;;5.72;67.92;97530.78;7763027;32;39856;-84
2024/01/18 07:17:18;;;;;;;34.28;17.73;;;;;;;5.45;69.26;97543.09;7764630;32;38714;-84
2024/01/18 07:21:35;;;;;;;35.95;18.60;;;;;;;5.76;68.43;97539.91;7738459;32;37160;-85
2024/01/18 07:25:51;;;;;;;37.83;17.87;;;;;;;5.84;68.10;97537.31;7737505;32;39553;-84
2024/01/18 07:30:08;;;;;;;31.02;16.95;;;;;;;5.85;68.22;97527.31;7738178;32;39845;-81
2024/01/18 07:34:24;;;;;;;34.67;16.15;;;;;;;6.04;67.75;97519.19;7748186;32;37990;-83
2024/01/18 07:38:40;;;;;;;29.73;16.95;;;;;;;6.01;68.33;97534.09;7738965;32;38047;-83
2024/01/18 07:42:57;;;;;;;33.78;16.85;;;;;;;6.09;68.19;97526.38;7764046;32;40118;-84
2024/01/18 07:47:13;;;;;;;37.70;17.62;;;;;;;5.94;68.61;97536.34;7764021;32;39722;-83
2024/01/18 07:51:31;;;;;;;31.45;15.45;;;;;;;5.97;68.53;97535.00;7763696;32;38728;-86
2024/01/18 07:55:49;;;;;;;28.65;16.40;;;;;;;6.22;67.97;97536.44;7763783;32;37200;-85
2024/01/18 08:00:06;;;;;;;54.33;16.80;;;;;;;6.23;68.25;97543.47;7761615;32;40101;-83
2024/01/18 08:04:23;;;;;;;27.73;16.25;;;;;;;6.12;68.92;97550.16;7755528;32;39964;-84
2024/01/18 08:08:40;;;;;;;26.73;15.25;;;;;;;6.15;68.52;97546.84;7747935;32;38018;-81
2024/01/18 08:12:58;;;;;;;30.33;15.73;;;;;;;6.22;68.16;97547.25;7739889;32;38165;-81
2024/01/18 08:17:14;;;;;;;29.58;15.32;;;;;;;6.36;67.95;97567.06;7740155;32;40110;-81
2024/01/18 08:21:30;;;;;;;24.45;13.52;;;;;;;6.51;67.46;97552.41;7762936;32;40813;-75
2024/01/18 08:25:46;;;;;;;26.67;15.07;;;;;;;6.72;67.23;97550.09;7766655;32;38716;-80
2024/01/18 08:30:04;;;;;;;24.58;14.75;;;;;;;6.84;69.00;97543.41;7766674;32;37974;-81
2024/01/18 08:34:21;;;;;;;29.70;16.23;;;;;;;6.88;67.71;97547.09;7765845;32;39946;-81
2024/01/18 08:38:37;;;;;;;34.28;16.30;;;;;;;6.64;67.75;97556.25;7744822;32;39673;-81
2024/01/18 08:42:53;;;;;;;35.30;17.75;;;;;;;6.66;67.37;97559.47;7734550;32;37859;-81
2024/01/18 08:47:10;;;;;;;39.85;17.12;;;;;;;6.57;67.60;97567.47;7745119;32;37881;-81
2024/01/18 08:51:26;;;;;;;37.35;18.60;;;;;;;6.63;67.18;97556.53;7742271;32;40097;-80
2024/01/18 08:55:42;;;;;;;25.77;15.43;;;;;;;6.60;67.11;97554.44;7739302;32;40997;-81
2024/01/18 08:59:59;;;;;;;31.42;16.12;;;;;;;6.42;67.94;97548.00;7748422;32;37885;-82
2024/01/18 09:04:16;;;;;;;26.55;14.73;;;;;;;6.50;68.35;97558.94;7752873;32;38437;-81
2024/01/18 09:08:35;;;;;;;117.25;20.58;;;;;;;6.70;67.98;97568.56;7739182;32;38045;-82
2024/01/18 09:12:52;;;;;;;38.50;20.75;;;;;;;6.70;68.58;97576.69;7738999;32;39938;-80
2024/01/18 09:17:09;;;;;;;37.38;20.37;;;;;;;6.88;68.01;97571.47;7760460;32;38866;-82
2024/01/18 09:21:26;;;;;;;40.15;20.10;;;;;;;6.63;69.10;97570.88;7746383;32;38098;-81
2024/01/18 09:25:43;;;;;;;29.52;16.15;;;;;;;6.91;68.39;97573.59;7751621;32;39402;-80
2024/01/18 09:29:59;;;;;;;24.95;14.20;;;;;;;6.95;68.53;97571.88;7746591;32;39713;-81
2024/01/18 09:34:16;;;;;;;35.85;17.62;;;;;;;7.03;69.11;97560.31;7738325;32;37710;-81
2024/01/18 09:38:34;;;;;;;27.45;15.77;;;;;;;6.90;69.69;97572.78;7763805;32;38680;-81
2024/01/18 09:42:51;;;;;;;37.58;16.37;;;;;;;6.95;69.97;97563.75;7761680;32;40225;-81
2024/01/18 09:47:08;;;;;;;44.80;16.70;;;;;;;6.77;70.78;97568.97;7754210;32;39989;-81
2024/01/18 09:51:24;;;;;;;138.90;22.73;;;;;;;7.47;68.65;97568.91;7754671;32;38707;-81
2024/01/18 09:55:43;;;;;;;35.95;17.85;;;;;;;6.87;70.30;97567.97;7765074;32;38038;-81
2024/01/18 10:00:08;;;;;;;176.30;22.37;;;;;;;6.76;70.41;97574.69;7764957;32;40141;-81
2024/01/18 10:04:28;;;;;;;28.35;16.02;;;;;;;6.44;70.88;97581.00;7751815;32;40624;-81
2024/01/18 10:08:46;;;;;;;31.23;16.83;;;;;;;6.90;69.13;97569.28;7765146;32;38703;-81
2024/01/18 10:13:03;;;;;;;349.10;30.70;;;;;;;7.18;68.33;97566.56;7764835;32;37982;-80
2024/01/18 10:17:23;;;;;;;48.50;19.75;;;;;;;6.60;70.04;97567.97;7765019;32;39685;-81
2024/01/18 10:21:40;;;;;;;45.93;20.07;;;;;;;7.03;68.72;97552.19;7747457;32;178047;-80
2024/01/18 10:25:57;;;;;;;101.85;24.48;;;;;;;7.20;67.84;97558.91;7750381;32;38635;-81
2024/01/18 10:30:15;;;;;;;150.35;24.77;;;;;;;7.09;67.86;97564.53;7764883;32;37129;-81
2024/01/18 10:34:35;;;;;;;78.85;23.10;;;;;;;7.14;67.52;97555.50;7757714;32;40166;-81
2024/01/18 10:38:52;;;;;;;51.63;22.58;;;;;;;7.08;68.18;97554.00;7746944;32;40381;-83
2024/01/18 10:43:11;;;;;;;80.03;21.62;;;;;;;7.21;68.05;97555.91;7752223;32;38343;-83
2024/01/18 10:47:29;;;;;;;51.53;20.17;;;;;;;7.19;68.42;97547.25;7764592;32;37168;-84
2024/01/18 10:51:45;;;;;;;139.93;24.70;;;;;;;7.33;68.35;97555.37;7764365;32;39891;-82
2024/01/18 10:56:02;;;;;;;41.20;19.80;;;;;;;7.36;67.82;97546.59;7764271;32;39895;-82
2024/01/18 11:00:19;;;;;;;36.33;19.23;;;;;;;7.14;68.55;97545.47;7763937;32;38620;-81
2024/01/18 11:04:37;;;;;;;30.25;16.35;;;;;;;7.21;68.84;97552.38;7763809;32;37075;-82
2024/01/18 11:08:54;;;;;;;24.20;13.45;;;;;;;7.41;68.25;97543.78;7764333;32;39411;-82
2024/01/18 11:13:12;;;;;;;24.95;14.15;;;;;;;7.46;68.34;97542.88;7764387;32;40652;-83
2024/01/18 11:17:28;;;;;;;30.20;16.70;;;;;;;7.56;68.38;97528.28;7738781;32;37951;-83
2024/01/18 11:21:44;;;;;;;26.02;14.95;;;;;;;7.69;68.66;97527.41;7758862;32;37320;-83
2024/01/18 11:26:04;;;;;;;23.67;13.88;;;;;;;7.90;68.35;97514.19;7764301;32;40057;-82
2024/01/18 11:30:35;;;;;;;33.83;17.70;;;;;;;7.82;69.56;97513.00;7745773;32;39884;-83
2024/01/18 11:35:07;;;;;;;30.40;15.48;;;;;;;7.82;69.90;97515.72;7768701;32;38619;-84
2024/01/18 11:39:47;;;;;;;35.63;15.75;;;;;;;8.16;68.64;97503.47;7786072;32;37188;-83
2024/01/18 11:44:10;;;;;;;40.25;16.58;;;;;;;7.92;69.31;97498.38;7789822;32;39508;-83
2024/01/18 11:48:27;;;;;;;28.00;16.15;;;;;;;8.39;67.95;97481.69;7778123;32;39947;-83
2024/01/18 11:52:44;;;;;;;27.42;15.20;;;;;;;8.60;67.58;97480.00;7790944;32;37786;-82
2024/01/18 11:57:03;;;;;;;26.23;15.15;;;;;;;8.42;68.86;97479.16;7790977;32;37363;-83
2024/01/18 12:01:19;;;;;;;24.75;14.48;;;;;;;8.32;68.82;97476.72;7772697;32;39007;-84
2024/01/18 12:05:36;;;;;;;29.15;15.60;;;;;;;8.13;69.18;97476.94;7763285;32;39922;-83
2024/01/18 12:09:52;;;;;;;25.27;15.13;;;;;;;8.08;69.37;97480.59;7763416;32;38726;-83
2024/01/18 12:14:09;;;;;;;51.00;15.57;;;;;;;8.38;68.49;97480.06;7763359;32;38055;-84
2024/01/18 12:18:25;;;;;;;20.55;12.05;;;;;;;7.43;69.53;97491.97;7749002;32;40063;-84
2024/01/18 12:22:43;;;;;;;18.23;10.45;;;;;;;7.82;67.03;97502.16;7761829;32;39703;-83
2024/01/18 12:26:59;;;;;;;22.20;11.70;;;;;;;8.15;66.24;97488.28;7762564;32;38757;-84
2024/01/18 12:31:16;;;;;;;23.12;12.63;;;;;;;8.20;66.04;97481.94;7749328;32;37367;-84
2024/01/18 12:35:36;;;;;;;20.92;12.05;;;;;;;8.13;66.60;97476.16;7762975;32;39086;-84
2024/01/18 12:39:53;;;;;;;17.52;11.15;;;;;;;8.19;66.99;97475.72;7762867;32;39946;-84
2024/01/18 12:44:13;;;;;;;18.35;11.40;;;;;;;7.86;68.16;97462.47;7762630;32;37914;-84
2024/01/18 12:48:30;;;;;;;18.90;11.60;;;;;;;7.95;68.28;97470.63;7762653;32;37230;-84
2024/01/18 12:52:48;;;;;;;18.17;10.68;;;;;;;7.48;69.06;97483.72;7765713;32;40130;-85
2024/01/18 12:57:05;;;;;;;18.37;10.95;;;;;;;7.63;67.93;97491.50;7766453;32;42194;-85
2024/01/18 13:01:53;;;;;;;19.77;11.27;;;;;;;8.09;66.51;97489.53;7765675;32;38547;-84
2024/01/18 13:06:09;;;;;;;18.25;11.20;;;;;;;7.83;66.99;97489.38;7766491;32;37146;-84
2024/01/18 13:10:26;;;;;;;18.83;11.57;;;;;;;8.23;66.14;97481.31;7752495;32;40096;-84
2024/01/18 13:14:45;;;;;;;19.80;12.07;;;;;;;7.94;67.34;97479.09;7752397;32;39962;-84
2024/01/18 13:19:06;;;;;;;20.65;12.35;;;;;;;8.09;67.07;97493.06;7766205;32;37874;-84
2024/01/18 13:23:23;;;;;;;19.20;11.63;;;;;;;8.05;66.85;97496.69;7763039;32;37852;-82
2024/01/18 13:27:39;;;;;;;17.58;10.70;;;;;;;8.21;67.00;97499.78;7744501;32;39191;-81
2024/01/18 13:31:56;;;;;;;19.10;11.55;;;;;;;8.02;67.36;97510.88;7753226;32;40759;-81
2024/01/18 13:36:12;;;;;;;21.75;11.98;;;;;;;8.15;67.27;97512.72;7744535;32;38626;-81
2024/01/18 13:40:29;;;;;;;18.70;11.60;;;;;;;7.82;68.23;97520.34;7765903;32;37144;-84
2024/01/18 13:44:45;;;;;;;17.23;10.73;;;;;;;8.03;67.59;97517.91;7745920;32;40047;-83
2024/01/18 13:49:01;;;;;;;14.63;10.32;;;;;;;8.09;67.19;97532.97;7738862;32;40053;-83
2024/01/18 13:53:18;;;;;;;15.88;9.60;;;;;;;8.16;66.97;97540.63;7738729;32;37710;-84
2024/01/18 13:57:35;;;;;;;16.48;9.43;;;;;;;8.39;66.02;97533.28;7738813;32;38175;-83
2024/01/18 14:01:51;;;;;;;14.20;9.38;;;;;;;8.45;65.69;97542.91;7738248;32;39423;-85
2024/01/18 14:06:07;;;;;;;28.87;14.43;;;;;;;8.20;66.75;97539.72;7738857;32;40642;-85
2024/01/18 14:10:24;;;;;;;27.73;15.20;;;;;;;8.11;67.42;97533.44;7738549;32;37548;-84
2024/01/18 14:14:40;;;;;;;29.63;15.65;;;;;;;8.31;66.86;97531.31;7738854;32;36598;-85
2024/01/18 14:18:58;;;;;;;24.50;14.05;;;;;;;8.07;67.38;97537.88;7738612;32;39313;-84
2024/01/18 14:23:14;;;;;;;24.17;14.43;;;;;;;8.25;67.04;97538.78;7738391;32;40014;-85
2024/01/18 14:27:30;;;;;;;23.75;14.05;;;;;;;8.23;66.88;97541.03;7738375;32;37917;-85
2024/01/18 14:31:47;;;;;;;21.60;10.73;;;;;;;8.31;66.44;97547.59;7738654;32;37945;-85
2024/01/18 14:36:04;;;;;;;22.50;12.98;;;;;;;8.22;66.78;97556.50;7738232;32;39972;-84
2024/01/18 14:40:20;;;;;;;26.27;13.80;;;;;;;8.19;66.77;97562.56;7724566;32;39934;-85
2024/01/18 14:44:37;;;;;;;23.95;12.73;;;;;;;7.98;67.58;97566.88;7738189;32;37862;-85
2024/01/18 14:48:55;;;;;;;23.80;12.02;;;;;;;8.23;66.72;97568.97;7738279;32;37232;-85
2024/01/18 14:53:13;;;;;;;33.55;12.93;;;;;;;8.19;66.34;97557.13;7738188;32;39248;-85
2024/01/18 14:57:29;;;;;;;31.52;13.85;;;;;;;8.14;66.69;97553.72;7738086;32;40545;-85
2024/01/18 15:01:46;;;;;;;43.08;14.32;;;;;;;8.24;66.41;97564.31;7737856;32;38639;-85
2024/01/18 15:06:02;;;;;;;28.35;12.45;;;;;;;8.00;67.33;97568.19;7737989;32;37343;-85
2024/01/18 15:10:19;;;;;;;31.70;13.43;;;;;;;8.08;67.11;97575.56;7737899;32;39302;-84
2024/01/18 15:14:36;;;;;;;31.75;14.10;;;;;;;8.03;67.34;97575.69;7736539;32;40712;-85
2024/01/18 15:18:52;;;;;;;31.05;13.02;;;;;;;8.35;66.26;97570.31;7723987;32;37937;-85
2024/01/18 15:23:21;;;;;;;35.22;12.73;;;;;;;8.01;67.09;97572.50;7737799;32;37950;-84
2024/01/18 15:27:38;;;;;;;28.62;12.88;;;;;;;8.01;66.98;97582.56;7737628;32;39313;-85
2024/01/18 15:31:54;;;;;;;28.58;12.75;;;;;;;8.04;66.95;97581.94;7737414;32;40021;-85
2024/01/18 15:36:10;;;;;;;51.83;15.85;;;;;;;8.11;66.56;97585.00;7737321;32;37884;-85
2024/01/18 15:40:27;;;;;;;28.35;13.65;;;;;;;8.14;66.37;97589.84;7737384;32;37191;-85
2024/01/18 15:44:43;;;;;;;37.25;14.57;;;;;;;8.10;66.28;97596.97;7737306;32;39022;-85
2024/01/18 15:48:59;;;;;;;41.15;13.75;;;;;;;8.01;66.37;97588.78;7737313;32;39967;-84
2024/01/18 15:53:15;;;;;;;43.45;14.57;;;;;;;7.85;66.85;97576.69;7736923;32;37603;-85
2024/01/18 15:57:32;;;;;;;54.55;14.63;;;;;;;7.92;66.51;97581.66;7737013;32;37229;-85
2024/01/18 16:01:48;;;;;;;35.33;14.10;;;;;;;7.96;66.57;97597.03;7736609;32;40007;-84
2024/01/18 16:06:07;;;;;;;153.02;22.90;;;;;;;8.04;66.60;97626.16;7736663;32;41001;-85
2024/01/18 16:10:27;;;;;;;59.10;19.23;;;;;;;7.73;67.21;97631.50;7736686;32;38463;-85
2024/01/18 16:14:46;;;;;;;64.62;18.27;;;;;;;7.60;67.30;97624.19;7736665;32;37217;-85
2024/01/18 16:19:02;;;;;;;129.07;18.92;;;;;;;7.49;67.32;97605.41;7736574;32;39215;-86
2024/01/18 16:23:19;;;;;;;61.80;21.58;;;;;;;7.55;67.28;97602.59;7736279;32;39950;-84
2024/01/18 16:27:35;;;;;;;45.08;19.75;;;;;;;7.44;67.94;97608.25;7738860;32;38695;-84
2024/01/18 16:31:52;;;;;;;35.67;15.07;;;;;;;7.71;66.90;97609.28;7739883;32;37759;-84
2024/01/18 16:36:08;;;;;;;60.22;14.15;;;;;;;7.65;66.88;97615.94;7739920;32;39380;-84
2024/01/18 16:40:27;;;;;;;31.95;14.25;;;;;;;7.63;66.81;97615.44;7739636;32;40842;-85
2024/01/18 16:44:43;;;;;;;42.72;19.37;;;;;;;7.64;66.91;97611.59;7739639;32;38529;-84
2024/01/18 16:49:01;;;;;;;63.60;20.35;;;;;;;7.52;67.23;97634.66;7739647;32;38100;-84
2024/01/18 16:53:17;;;;;;;67.12;19.02;;;;;;;7.71;66.43;97634.50;7739445;32;40160;-84
2024/01/18 16:57:33;;;;;;;51.75;17.70;;;;;;;7.37;67.48;97634.97;7739488;32;40831;-84
2024/01/18 17:01:50;;;;;;;32.13;10.13;;;;;;;7.38;67.28;97616.78;7739198;32;38641;-84
2024/01/18 17:06:06;;;;;;;51.47;8.50;;;;;;;7.42;67.27;97615.87;7739441;32;37244;-85
2024/01/18 17:10:23;;;;;;;55.92;10.43;;;;;;;7.53;67.22;97614.53;7739431;32;39451;-85
2024/01/18 17:14:41;;;;;;;62.25;13.45;;;;;;;7.38;67.74;97620.31;7739250;32;39727;-85
2024/01/18 17:18:57;;;;;;;35.17;12.37;;;;;;;7.40;67.81;97634.38;7739163;32;39097;-85
2024/01/18 17:23:13;;;;;;;58.65;12.13;;;;;;;7.38;67.68;97642.00;7739162;32;37799;-83
2024/01/18 17:27:30;;;;;;;40.10;10.65;;;;;;;7.45;67.24;97642.41;7739050;32;39351;-83
2024/01/18 17:31:47;;;;;;;36.00;9.82;;;;;;;7.55;66.93;97643.28;7739042;32;40815;-86
2024/01/18 17:36:03;;;;;;;88.03;9.50;;;;;;;7.26;67.26;97660.66;7738586;32;37738;-84
2024/01/18 17:40:21;;;;;;;98.47;15.07;;;;;;;7.36;67.26;97671.31;7738844;32;37125;-84
2024/01/18 17:44:37;;;;;;;293.25;21.77;;;;;;;6.98;68.30;97695.88;7738958;32;39086;-84
2024/01/18 17:48:54;;;;;;;141.12;15.32;;;;;;;7.22;67.51;97711.16;7738815;32;39873;-84
2024/01/18 17:53:14;;;;;;;69.45;12.80;;;;;;;7.09;68.02;97718.19;7738756;32;37861;-84
2024/01/18 17:57:30;;;;;;;31.92;9.85;;;;;;;6.93;68.11;97726.59;7738149;32;37351;-84
2024/01/18 18:01:47;;;;;;;42.05;9.63;;;;;;;7.00;67.81;97720.75;7744259;32;40023;-82
2024/01/18 18:06:03;;;;;;;28.48;8.88;;;;;;;6.88;68.29;97731.28;7750521;32;40864;-80
2024/01/18 18:10:20;;;;;;;35.58;8.85;;;;;;;7.06;67.48;97729.63;7766491;32;37799;-84
2024/01/18 18:14:36;;;;;;;32.97;9.25;;;;;;;6.96;68.17;97730.59;7754045;32;38178;-87
2024/01/18 18:18:53;;;;;;;64.15;9.55;;;;;;;6.95;67.97;97737.13;7748285;32;39097;-85
2024/01/18 18:23:09;;;;;;;36.33;9.23;;;;;;;6.96;67.83;97738.72;7747104;32;40746;-86
2024/01/18 18:27:25;;;;;;;27.35;9.07;;;;;;;6.98;67.67;97744.66;7788350;32;37698;-85
2024/01/18 18:31:41;;;;;;;19.92;8.80;;;;;;;6.91;67.70;97736.91;7791706;32;37625;-84
2024/01/18 18:36:00;;;;;;;17.10;9.80;;;;;;;7.01;67.20;97740.56;7759587;32;40042;-82
2024/01/18 18:40:16;;;;;;;23.40;8.60;;;;;;;6.91;67.85;97755.06;7742935;32;40039;-83
2024/01/18 18:44:33;;;;;;;21.60;10.05;;;;;;;7.09;67.13;97754.22;7755892;32;37865;-82
2024/01/18 18:48:49;;;;;;;18.23;10.05;;;;;;;6.97;67.56;97756.59;7760797;32;37367;-82
2024/01/18 18:53:05;;;;;;;23.35;11.60;;;;;;;7.15;66.88;97757.63;7764561;32;39903;-82
2024/01/18 18:57:22;;;;;;;229.93;17.17;;;;;;;7.11;66.94;97776.41;7738478;32;40246;-82
2024/01/18 19:01:38;;;;;;;20.73;10.18;;;;;;;7.05;67.37;97774.84;7737934;32;38258;-82
2024/01/18 19:05:55;;;;;;;20.67;9.35;;;;;;;6.84;68.14;97784.44;7738063;32;37218;-82
2024/01/18 19:10:11;;;;;;;20.42;11.10;;;;;;;7.02;67.58;97772.78;7738034;32;39903;-81
2024/01/18 19:14:28;;;;;;;25.95;12.10;;;;;;;7.06;67.46;97806.28;7747121;32;39865;-81
2024/01/18 19:18:44;;;;;;;23.17;10.93;;;;;;;7.12;67.39;97801.56;7725001;32;38645;-82
2024/01/18 19:23:01;;;;;;;22.00;10.70;;;;;;;6.99;67.67;97814.00;7765023;32;35375;-82
2024/01/18 19:27:17;;;;;;;26.37;11.30;;;;;;;7.07;67.18;97809.78;7764603;32;39287;-82
2024/01/18 19:31:34;;;;;;;23.15;11.93;;;;;;;7.18;66.74;97815.88;7738054;32;40722;-81
2024/01/18 19:35:50;;;;;;;32.53;13.13;;;;;;;7.17;66.73;97822.38;7737427;32;37936;-82
2024/01/18 19:40:08;;;;;;;31.23;12.13;;;;;;;7.13;67.02;97816.75;7746777;32;38206;-82
2024/01/18 19:44:24;;;;;;;36.70;13.88;;;;;;;7.03;67.09;97820.41;7735339;32;39366;-83
2024/01/18 19:48:41;;;;;;;254.68;19.42;;;;;;;7.19;66.79;97818.25;7737869;32;40081;-83
2024/01/18 19:52:58;;;;;;;188.20;16.40;;;;;;;6.96;67.16;97828.94;7731700;32;37649;-84